createdAt,value
2022-08-10T00:01:51.473Z,3.78
2022-08-10T00:04:21.092Z,4.15
2022-08-10T00:06:48.422Z,3.67
2022-08-10T00:09:14.965Z,4.20
2022-08-10T00:11:41.434Z,3.15
2022-08-10T00:14:07.974Z,3.65
2022-08-10T00:16:34.465Z,3.45
2022-08-10T00:19:01.020Z,3.75
2022-08-10T00:21:27.546Z,3.55
2022-08-10T00:23:54.078Z,4.55
2022-08-10T00:26:20.612Z,4.85
2022-08-10T00:28:48.619Z,3.95
2022-08-10T00:31:15.111Z,3.25
2022-08-10T00:33:42.181Z,3.60
2022-08-10T00:36:08.737Z,3.88
2022-08-10T00:38:37.185Z,3.78
2022-08-10T00:41:03.808Z,3.35
2022-08-10T00:43:30.376Z,4.18
2022-08-10T00:45:59.191Z,3.28
2022-08-10T00:48:28.110Z,3.58
2022-08-10T00:50:54.969Z,4.07
2022-08-10T00:53:21.710Z,3.78
2022-08-10T00:57:12.215Z,3.63
2022-08-10T00:58:35.165Z,4.00
2022-08-10T01:01:01.744Z,4.10
2022-08-10T01:04:39.727Z,4.22
2022-08-10T01:06:30.108Z,5.22
2022-08-10T01:09:06.675Z,3.92
2022-08-10T01:12:39.279Z,4.65
2022-08-10T01:14:28.687Z,4.25
2022-08-10T01:17:00.764Z,5.05
2022-08-10T01:19:27.251Z,4.43
2022-08-10T01:22:12.751Z,3.45
2022-08-10T01:24:51.443Z,4.63
2022-08-10T01:27:37.568Z,3.80
2022-08-10T01:30:08.097Z,4.13
2022-08-10T01:32:41.445Z,3.53
2022-08-10T01:35:18.814Z,3.97
2022-08-10T01:38:11.818Z,4.10
2022-08-10T01:40:39.826Z,3.70
2022-08-10T01:43:08.916Z,4.13
2022-08-10T01:45:45.246Z,3.95
2022-08-10T01:48:31.703Z,3.35
2022-08-10T01:51:03.572Z,4.10
2022-08-10T01:53:40.802Z,4.25
2022-08-10T01:56:07.945Z,3.97
2022-08-10T01:58:34.424Z,4.20
2022-08-10T02:01:01.600Z,4.50
2022-08-10T02:03:28.227Z,4.15
2022-08-10T02:05:55.159Z,4.18
2022-08-10T02:08:22.627Z,3.92
2022-08-10T02:10:49.408Z,4.93
2022-08-10T02:13:16.579Z,4.32
2022-08-10T02:16:02.261Z,3.92
2022-08-10T02:18:29.854Z,4.13
2022-08-10T02:20:56.458Z,4.72
2022-08-10T02:23:27.693Z,4.20
2022-08-10T02:25:55.001Z,4.53
2022-08-10T02:28:27.104Z,5.00
2022-08-10T02:30:57.718Z,4.50
2022-08-10T02:33:25.679Z,4.43
2022-08-10T02:35:55.840Z,4.65
2022-08-10T02:38:58.822Z,4.60
2022-08-10T02:45:12.217Z,4.88
2022-08-10T02:45:22.578Z,4.40
2022-08-10T02:47:12.198Z,4.05
2022-08-10T02:49:42.359Z,3.63
2022-08-10T02:52:14.575Z,4.03
2022-08-10T02:54:44.913Z,3.78
2022-08-10T02:57:19.119Z,3.53
2022-08-10T02:59:49.665Z,4.00
2022-08-10T03:02:29.211Z,3.63
2022-08-10T03:04:57.996Z,3.75
2022-08-10T03:07:43.581Z,4.38
2022-08-10T03:10:15.854Z,3.53
2022-08-10T03:12:42.829Z,4.18
2022-08-10T03:15:09.779Z,3.78
2022-08-10T03:17:42.050Z,3.85
2022-08-10T03:20:38.373Z,3.45
2022-08-10T03:23:08.267Z,4.45
2022-08-10T03:25:34.753Z,3.95
2022-08-10T03:28:01.258Z,3.90
2022-08-10T03:30:32.198Z,4.28
2022-08-10T03:32:59.892Z,4.55
2022-08-10T03:35:26.455Z,4.30
2022-08-10T03:37:59.141Z,4.00
2022-08-10T03:40:32.176Z,3.70
2022-08-10T03:43:17.128Z,4.20
2022-08-10T03:45:54.289Z,3.78
2022-08-10T03:48:22.918Z,4.78
2022-08-10T03:50:51.262Z,4.45
2022-08-10T03:53:24.963Z,3.97
2022-08-10T03:56:30.183Z,4.03
2022-08-10T03:58:52.506Z,4.18
2022-08-10T04:01:19.114Z,4.75
2022-08-10T04:03:45.689Z,4.50
2022-08-10T04:06:12.393Z,4.25
2022-08-10T04:08:42.311Z,5.13
2022-08-10T04:11:11.463Z,4.80
2022-08-10T04:13:41.015Z,5.75
2022-08-10T04:16:07.649Z,4.63
2022-08-10T04:18:34.299Z,4.50
2022-08-10T04:21:17.411Z,4.13
2022-08-10T04:23:44.370Z,4.40
2022-08-10T04:26:11.419Z,4.75
2022-08-10T04:28:37.875Z,4.35
2022-08-10T04:31:04.670Z,4.18
2022-08-10T04:33:31.652Z,4.10
2022-08-10T04:35:58.201Z,5.07
2022-08-10T04:38:24.987Z,5.10
2022-08-10T04:40:51.495Z,5.07
2022-08-10T04:43:18.015Z,4.63
2022-08-10T04:45:47.527Z,4.07
2022-08-10T04:48:42.242Z,4.95
2022-08-10T04:51:01.373Z,5.00
2022-08-10T04:53:28.441Z,4.97
2022-08-10T04:55:54.906Z,4.40
2022-08-10T04:58:21.460Z,4.45
2022-08-10T05:00:47.978Z,4.63
2022-08-10T05:03:14.533Z,4.90
2022-08-10T05:05:40.988Z,5.25
2022-08-10T05:08:07.487Z,5.25
2022-08-10T05:10:33.989Z,4.90
2022-08-10T05:13:00.641Z,4.82
2022-08-10T05:15:27.610Z,5.22
2022-08-10T05:18:08.596Z,5.05
2022-08-10T05:20:36.529Z,4.55
2022-08-10T05:23:03.057Z,5.10
2022-08-10T05:25:29.580Z,4.20
2022-08-10T05:28:04.294Z,5.13
2022-08-10T05:30:32.706Z,4.68
2022-08-10T05:33:02.613Z,4.30
2022-08-10T05:35:52.910Z,3.97
2022-08-10T05:38:17.166Z,4.30
2022-08-10T05:40:47.461Z,4.15
2022-08-10T05:43:17.044Z,4.60
2022-08-10T05:46:17.341Z,3.78
2022-08-10T05:48:56.894Z,4.82
2022-08-10T05:51:16.891Z,7.60
2022-08-10T05:54:01.891Z,4.68
2022-08-10T05:56:53.372Z,3.90
2022-08-10T06:00:35.037Z,4.25
2022-08-10T06:02:31.502Z,3.88
2022-08-10T06:04:51.751Z,4.60
2022-08-10T06:07:21.652Z,4.40
2022-08-10T06:09:59.334Z,5.05
2022-08-10T06:12:37.584Z,3.85
2022-08-10T06:15:21.580Z,3.90
2022-08-10T06:17:48.574Z,4.50
2022-08-10T06:20:31.674Z,4.63
2022-08-10T06:23:01.053Z,3.53
2022-08-10T06:26:09.709Z,3.97
2022-08-10T06:28:17.556Z,3.50
2022-08-10T06:30:45.189Z,2.63
2022-08-10T06:33:11.677Z,3.13
2022-08-10T06:35:38.247Z,3.10
2022-08-10T06:38:05.083Z,4.13
2022-08-10T06:40:35.851Z,2.88
2022-08-10T06:43:03.658Z,3.35
2022-08-10T06:45:31.756Z,2.72
2022-08-10T06:48:05.309Z,2.90
2022-08-10T06:50:56.006Z,3.47
2022-08-10T06:53:53.605Z,2.53
2022-08-10T06:56:13.662Z,2.78
2022-08-10T06:58:41.802Z,2.28
2022-08-10T07:01:09.193Z,2.22
2022-08-10T07:03:36.864Z,2.80
2022-08-10T07:06:03.534Z,2.88
2022-08-10T07:08:31.568Z,2.72
2022-08-10T07:10:58.070Z,4.30
2022-08-10T07:14:14.102Z,3.30
2022-08-10T07:16:11.722Z,4.75
2022-08-10T07:18:38.282Z,3.63
2022-08-10T07:21:04.853Z,3.45
2022-08-10T07:23:57.442Z,5.18
2022-08-10T07:26:18.115Z,10.27
2022-08-10T07:28:47.974Z,5.50
2022-08-10T07:31:56.616Z,4.30
2022-08-10T07:34:02.826Z,3.88
2022-08-10T07:36:29.613Z,3.40
2022-08-10T07:38:56.251Z,3.95
2022-08-10T07:41:23.512Z,3.33
2022-08-10T07:43:50.247Z,5.00
2022-08-10T07:46:16.767Z,3.50
2022-08-10T07:48:47.870Z,3.72
2022-08-10T07:51:14.367Z,4.22
2022-08-10T07:53:43.802Z,3.72
2022-08-10T07:56:21.336Z,3.92
2022-08-10T07:58:57.937Z,3.20
2022-08-10T08:01:27.325Z,4.05
2022-08-10T08:04:05.704Z,4.40
2022-08-10T08:06:38.308Z,3.80
2022-08-10T08:09:04.862Z,3.40
2022-08-10T08:11:31.604Z,3.45
2022-08-10T08:13:58.090Z,2.60
2022-08-10T08:16:24.671Z,3.88
2022-08-10T08:19:16.365Z,3.17
2022-08-10T08:24:08.637Z,2.95
2022-08-10T08:24:32.407Z,3.53
2022-08-10T08:26:59.923Z,2.03
2022-08-10T08:29:26.393Z,3.15
2022-08-10T08:32:00.852Z,1.98
2022-08-10T08:34:29.670Z,1.30
2022-08-10T08:36:59.405Z,1.85
2022-08-10T08:39:26.510Z,1.58
2022-08-10T08:41:57.297Z,1.85
2022-08-10T08:44:34.743Z,1.83
2022-08-10T08:47:01.509Z,1.63
2022-08-10T08:50:05.305Z,1.67
2022-08-10T08:52:25.882Z,1.58
2022-08-10T08:54:55.617Z,1.65
2022-08-10T08:57:49.379Z,1.50
2022-08-10T09:00:37.938Z,1.38
2022-08-10T09:03:10.698Z,1.42
2022-08-10T09:05:59.820Z,1.10
2022-08-10T09:08:33.463Z,1.25
2022-08-10T09:11:06.573Z,1.30
2022-08-10T09:13:39.039Z,1.35
2022-08-10T09:16:20.545Z,1.75
2022-08-10T09:18:52.710Z,1.40
2022-08-10T09:21:27.068Z,1.38
2022-08-10T09:24:10.956Z,1.30
2022-08-10T09:26:40.580Z,1.15
2022-08-10T09:29:11.920Z,1.27
2022-08-10T09:33:07.639Z,1.67
2022-08-10T09:36:20.490Z,3.10
2022-08-10T09:37:39.287Z,1.88
2022-08-10T09:40:59.526Z,1.40
2022-08-10T09:43:47.670Z,1.15
2022-08-10T09:46:16.878Z,1.30
2022-08-10T09:48:43.367Z,1.35
2022-08-10T09:51:44.277Z,1.50
2022-08-10T09:54:17.803Z,1.48
2022-08-10T09:57:43.553Z,1.20
2022-08-10T10:00:11.955Z,1.15
2022-08-10T10:02:39.275Z,1.20
2022-08-10T10:05:29.091Z,2.38
2022-08-10T10:08:15.860Z,1.33
2022-08-10T10:10:47.819Z,1.33
2022-08-10T10:13:57.361Z,0.98
2022-08-10T10:16:30.959Z,1.00
2022-08-10T10:19:04.357Z,1.20
2022-08-10T10:21:55.365Z,0.90
2022-08-10T10:24:35.942Z,1.25
2022-08-10T10:27:16.170Z,1.25
2022-08-10T10:30:06.395Z,0.88
2022-08-10T10:32:36.968Z,1.40
2022-08-10T10:35:08.783Z,0.90
2022-08-10T10:38:02.134Z,1.20
2022-08-10T10:40:22.679Z,1.10
2022-08-10T10:43:01.150Z,1.30
2022-08-10T10:45:33.737Z,1.00
2022-08-10T10:48:09.221Z,1.20
2022-08-10T10:51:09.881Z,1.20
2022-08-10T10:53:37.104Z,1.38
2022-08-10T10:56:14.643Z,1.13
2022-08-10T10:58:49.187Z,1.10
2022-08-10T11:01:26.103Z,1.30
2022-08-10T11:03:58.891Z,1.35
2022-08-10T11:06:39.879Z,1.25
2022-08-10T11:09:12.431Z,1.20
2022-08-10T11:12:01.672Z,1.10
2022-08-10T11:14:29.744Z,1.10
2022-08-10T11:17:14.910Z,1.10
2022-08-10T11:20:05.438Z,1.00
2022-08-10T11:22:41.206Z,1.10
2022-08-10T11:25:22.769Z,0.90
2022-08-10T11:27:55.374Z,0.93
2022-08-10T11:30:46.433Z,0.93
2022-08-10T11:33:33.618Z,0.90
2022-08-10T11:36:03.428Z,0.93
2022-08-10T11:39:13.468Z,0.70
2022-08-10T11:42:09.071Z,0.80
2022-08-10T11:44:44.105Z,1.00
2022-08-10T11:47:10.897Z,1.30
2022-08-10T11:49:49.673Z,0.90
2022-08-10T11:52:48.637Z,0.77
2022-08-10T11:55:23.190Z,0.82
2022-08-10T11:57:54.645Z,0.90
2022-08-10T12:00:22.189Z,0.80
2022-08-10T12:03:04.929Z,0.88
2022-08-10T12:05:54.527Z,0.90
2022-08-10T12:10:06.815Z,0.82
2022-08-10T12:11:11.739Z,0.80
2022-08-10T12:14:10.753Z,0.60
2022-08-10T12:16:35.232Z,0.80
2022-08-10T12:19:03.392Z,0.90
2022-08-10T12:21:36.358Z,1.17
2022-08-10T12:24:03.822Z,0.80
2022-08-10T12:26:38.057Z,0.90
2022-08-10T12:29:07.602Z,1.08
2022-08-10T12:31:34.101Z,0.73
2022-08-10T12:34:05.959Z,0.90
2022-08-10T12:36:33.828Z,1.08
2022-08-10T12:39:14.534Z,0.80
2022-08-10T12:41:44.795Z,0.90
2022-08-10T12:44:23.133Z,0.75
2022-08-10T12:47:15.030Z,0.70
2022-08-10T12:50:31.460Z,1.33
2022-08-10T12:52:44.507Z,0.82
2022-08-10T12:55:10.963Z,0.80
2022-08-10T12:57:37.509Z,0.70
2022-08-10T13:00:04.993Z,1.10
2022-08-10T13:02:33.197Z,0.80
2022-08-10T13:05:00.773Z,0.80
2022-08-10T13:08:25.688Z,0.80
2022-08-10T13:10:15.490Z,0.70
2022-08-10T13:12:46.978Z,0.68
2022-08-10T13:15:45.633Z,1.05
2022-08-10T13:18:02.942Z,0.70
2022-08-10T13:20:30.348Z,0.80
2022-08-10T13:22:58.501Z,0.70
2022-08-10T13:25:45.719Z,0.73
2022-08-10T13:28:36.039Z,0.90
2022-08-10T13:31:01.712Z,0.70
2022-08-10T13:34:39.818Z,0.70
2022-08-10T13:36:16.350Z,0.80
2022-08-10T13:38:44.077Z,0.90
2022-08-10T13:41:11.153Z,0.75
2022-08-10T13:43:37.884Z,0.90
2022-08-10T13:46:04.420Z,0.70
2022-08-10T13:48:32.236Z,0.80
2022-08-10T13:50:58.977Z,0.70
2022-08-10T13:53:28.910Z,0.70
2022-08-10T13:55:57.234Z,0.77
2022-08-10T13:58:37.180Z,0.75
2022-08-10T14:01:10.638Z,0.77
2022-08-10T14:03:38.126Z,0.80
2022-08-10T14:06:05.383Z,0.60
2022-08-10T14:08:32.232Z,0.50
2022-08-10T14:11:01.283Z,0.45
2022-08-10T14:13:36.772Z,0.60
2022-08-10T14:16:06.500Z,0.60
2022-08-10T14:18:36.082Z,0.60
2022-08-10T14:21:04.933Z,0.70
2022-08-10T14:23:32.535Z,0.73
2022-08-10T14:25:59.111Z,0.80
2022-08-10T14:28:26.466Z,0.80
2022-08-10T14:30:57.404Z,0.70
2022-08-10T14:33:24.029Z,0.70
2022-08-10T14:36:21.753Z,0.70
2022-08-10T14:38:37.387Z,0.60
2022-08-10T14:41:04.359Z,0.70
2022-08-10T14:43:40.403Z,0.55
2022-08-10T14:46:07.300Z,0.60
2022-08-10T14:48:40.863Z,0.60
2022-08-10T14:51:07.790Z,0.60
2022-08-10T14:53:35.072Z,0.70
2022-08-10T14:56:06.539Z,0.80
2022-08-10T14:58:33.791Z,0.60
2022-08-10T15:01:00.382Z,0.65
2022-08-10T15:04:02.610Z,0.55
2022-08-10T15:06:17.055Z,0.60
2022-08-10T15:08:47.041Z,0.60
2022-08-10T15:12:13.009Z,0.60
2022-08-10T15:14:41.299Z,0.60
2022-08-10T15:16:47.376Z,0.68
2022-08-10T15:20:03.294Z,0.70
2022-08-10T15:22:18.197Z,1.10
2022-08-10T15:25:05.720Z,0.70
2022-08-10T15:27:53.829Z,0.60
2022-08-10T15:30:22.902Z,0.60
2022-08-10T15:33:14.872Z,0.40
2022-08-10T15:36:06.971Z,0.50
2022-08-10T15:38:37.684Z,0.50
2022-08-10T15:41:06.253Z,0.60
2022-08-10T15:43:44.922Z,0.60
2022-08-10T15:46:22.357Z,0.60
2022-08-10T15:48:59.977Z,0.50
2022-08-10T15:51:53.987Z,0.65
2022-08-10T15:54:33.600Z,0.55
2022-08-10T15:57:01.564Z,0.40
2022-08-10T15:59:31.050Z,0.68
2022-08-10T16:02:13.564Z,0.50
2022-08-10T16:04:46.132Z,0.50
2022-08-10T16:07:16.629Z,0.65
2022-08-10T16:10:23.092Z,0.60
2022-08-10T16:12:38.066Z,0.70
2022-08-10T16:15:11.059Z,0.70
2022-08-10T16:17:55.970Z,0.60
2022-08-10T16:20:53.552Z,0.60
2022-08-10T16:23:26.046Z,0.80
2022-08-10T16:26:04.587Z,0.50
2022-08-10T16:28:35.827Z,0.60
2022-08-10T16:31:04.107Z,0.32
2022-08-10T16:33:53.725Z,0.50
2022-08-10T16:36:19.386Z,0.40
2022-08-10T16:38:47.040Z,0.55
2022-08-10T16:42:01.958Z,0.60
2022-08-10T16:44:00.037Z,0.50
2022-08-10T16:46:26.501Z,0.50
2022-08-10T16:48:53.255Z,0.50
2022-08-10T16:51:21.231Z,0.65
2022-08-10T16:53:47.876Z,0.50
2022-08-10T16:56:14.563Z,0.60
2022-08-10T16:58:41.717Z,0.43
2022-08-10T17:01:09.518Z,0.93
2022-08-10T17:04:08.302Z,0.50
2022-08-10T17:06:29.105Z,0.50
2022-08-10T17:08:55.941Z,0.40
2022-08-10T17:11:23.494Z,0.60
2022-08-10T17:13:49.990Z,0.50
2022-08-10T17:16:17.298Z,0.60
2022-08-10T17:18:46.949Z,0.50
2022-08-10T17:21:21.075Z,0.60
2022-08-10T17:23:49.544Z,0.50
2022-08-10T17:26:17.685Z,0.50
2022-08-10T17:28:50.966Z,0.60
2022-08-10T17:31:51.587Z,0.60
2022-08-10T17:34:16.291Z,0.70
2022-08-10T17:36:43.101Z,0.50
2022-08-10T17:39:11.284Z,0.40
2022-08-10T17:41:37.895Z,0.57
2022-08-10T17:44:04.918Z,0.50
2022-08-10T17:46:35.182Z,0.50
2022-08-10T17:49:05.168Z,0.38
2022-08-10T17:51:31.670Z,0.60
2022-08-10T17:53:58.767Z,0.70
2022-08-10T17:56:25.793Z,0.50
2022-08-10T17:59:00.613Z,0.60
2022-08-10T18:01:42.074Z,0.50
2022-08-10T18:04:15.469Z,0.63
2022-08-10T18:06:43.156Z,0.60
2022-08-10T18:09:11.817Z,0.50
2022-08-10T18:11:41.920Z,0.70
2022-08-10T18:14:08.474Z,0.63
2022-08-10T18:16:35.464Z,0.75
2022-08-10T18:19:09.104Z,0.70
2022-08-10T18:21:39.205Z,0.75
2022-08-10T18:24:15.576Z,0.90
2022-08-10T18:26:43.581Z,0.70
2022-08-10T18:29:11.124Z,0.75
2022-08-10T18:31:37.738Z,0.80
2022-08-10T18:34:04.243Z,0.93
2022-08-10T18:36:31.646Z,0.90
2022-08-10T18:38:59.610Z,0.80
2022-08-10T18:41:32.894Z,0.70
2022-08-10T18:44:07.147Z,0.95
2022-08-10T18:46:40.502Z,0.90
2022-08-10T18:49:09.502Z,0.80
2022-08-10T18:51:46.541Z,0.90
2022-08-10T18:54:39.286Z,1.00
2022-08-10T18:57:11.201Z,0.75
2022-08-10T18:59:37.787Z,0.90
2022-08-10T19:02:10.649Z,0.80
2022-08-10T19:04:56.014Z,0.90
2022-08-10T19:07:41.764Z,1.10
2022-08-10T19:10:17.234Z,0.90
2022-08-10T19:13:19.334Z,1.13
2022-08-10T19:15:52.545Z,1.35
2022-08-10T19:18:31.248Z,1.30
2022-08-10T19:20:59.008Z,0.98
2022-08-10T19:23:39.745Z,1.13
2022-08-10T19:26:32.875Z,1.27
2022-08-10T19:28:57.172Z,0.90
2022-08-10T19:31:44.520Z,0.80
2022-08-10T19:34:30.245Z,0.90
2022-08-10T19:36:59.742Z,1.00
2022-08-10T19:39:33.795Z,1.20
2022-08-10T19:42:21.222Z,1.02
2022-08-10T19:44:57.939Z,1.17
2022-08-10T19:47:24.408Z,0.93
2022-08-10T19:50:14.373Z,1.10
2022-08-10T19:52:43.064Z,1.10
2022-08-10T19:55:12.419Z,1.00
2022-08-10T19:57:47.942Z,0.80
2022-08-10T20:00:20.686Z,0.90
2022-08-10T20:02:55.538Z,0.85
2022-08-10T20:05:39.307Z,1.20
2022-08-10T20:08:07.905Z,1.00
2022-08-10T20:10:41.495Z,1.15
2022-08-10T20:13:15.366Z,0.85
2022-08-10T20:15:43.205Z,1.25
2022-08-10T20:18:13.014Z,1.15
2022-08-10T20:21:07.206Z,1.10
2022-08-10T20:23:34.173Z,1.00
2022-08-10T20:26:01.420Z,1.35
2022-08-10T20:28:32.288Z,1.20
2022-08-10T20:31:01.399Z,1.10
2022-08-10T20:33:29.289Z,1.15
2022-08-10T20:35:58.911Z,0.98
2022-08-10T20:38:31.258Z,1.00
2022-08-10T20:41:13.007Z,1.25
2022-08-10T20:43:39.733Z,1.00
2022-08-10T20:46:21.346Z,1.27
2022-08-10T20:49:01.825Z,1.00
2022-08-10T20:51:58.664Z,1.42
2022-08-10T20:54:20.718Z,1.50
2022-08-10T20:56:50.196Z,1.10
2022-08-10T20:59:23.499Z,1.75
2022-08-10T21:02:12.712Z,1.27
2022-08-10T21:04:41.816Z,1.00
2022-08-10T21:07:28.609Z,1.10
2022-08-10T21:10:13.422Z,1.30
2022-08-10T21:12:58.190Z,1.20
2022-08-10T21:15:41.577Z,1.10
2022-08-10T21:18:20.442Z,1.20
2022-08-10T21:21:06.235Z,0.88
2022-08-10T21:23:32.779Z,1.10
2022-08-10T21:26:10.652Z,1.13
2022-08-10T21:28:41.178Z,1.10
2022-08-10T21:31:22.048Z,1.10
2022-08-10T21:34:00.722Z,1.38
2022-08-10T21:36:30.607Z,1.17
2022-08-10T21:39:06.862Z,1.00
2022-08-10T21:41:58.925Z,1.33
2022-08-10T21:44:50.323Z,1.40
2022-08-10T21:48:07.531Z,1.30
2022-08-10T21:50:43.856Z,1.17
2022-08-10T21:53:44.535Z,1.20
2022-08-10T21:56:37.459Z,1.17
2022-08-10T21:59:23.619Z,1.00
2022-08-10T22:02:13.944Z,1.08
2022-08-10T22:04:59.332Z,1.50
2022-08-10T22:07:44.507Z,1.20
2022-08-10T22:10:30.799Z,1.08
2022-08-10T22:13:19.731Z,1.20
2022-08-10T22:16:10.718Z,1.20
2022-08-10T22:22:27.027Z,1.20
2022-08-10T22:25:16.476Z,1.08
2022-08-10T22:28:02.247Z,1.63
2022-08-10T22:31:22.911Z,1.35
2022-08-10T22:31:26.030Z,1.83
2022-08-10T22:34:15.247Z,1.30
2022-08-10T22:37:00.413Z,1.30
2022-08-10T22:40:12.466Z,1.30
2022-08-10T22:43:09.922Z,1.50
2022-08-10T22:45:56.897Z,1.23
2022-08-10T22:48:42.151Z,1.13
2022-08-10T22:51:11.487Z,1.30
2022-08-10T22:53:56.900Z,1.02
2022-08-10T22:56:42.190Z,1.40
2022-08-10T22:59:09.013Z,1.25
2022-08-10T23:02:07.542Z,1.42
2022-08-10T23:04:37.033Z,1.23
2022-08-10T23:07:08.766Z,1.70
2022-08-10T23:09:35.886Z,1.30
2022-08-10T23:12:03.322Z,1.23
2022-08-10T23:14:36.760Z,1.70
2022-08-10T23:17:22.093Z,1.52
2022-08-10T23:20:01.597Z,1.42
2022-08-10T23:22:35.470Z,1.23
2022-08-10T23:25:12.270Z,1.45
2022-08-10T23:27:40.428Z,1.92
2022-08-10T23:30:17.598Z,1.30
2022-08-10T23:32:51.583Z,1.40
2022-08-10T23:36:31.445Z,1.50
2022-08-10T23:38:06.229Z,1.65
2022-08-10T23:40:32.910Z,1.40
2022-08-10T23:42:59.407Z,1.70
2022-08-10T23:45:26.881Z,1.30
2022-08-10T23:47:54.196Z,1.70
2022-08-10T23:50:20.712Z,1.55
2022-08-10T23:52:57.247Z,1.75
2022-08-10T23:55:24.739Z,1.92
2022-08-10T23:57:55.322Z,1.88
